Time;durP1;ratioP1;P1;durP2;ratioP2;P2;SDS_P1;SDS_P2;PMS_P1;PMS_P2;Temp;Humidity;BMP_temperature;BMP_pressure;BME280_temperature;BME280_humidity;BME280_pressure;Samples;Min_cycle;Max_cycle;Signal;HPM_P1;HPM_P2
2021/05/21 00:02:22;;;;;;;19.55;12.88;;;16.10;51.50;;;;;;5047137;28;20926;-64
2021/05/21 00:04:47;;;;;;;18.73;12.82;;;16.00;51.60;;;;;;5047722;28;20050;-65
2021/05/21 00:07:13;;;;;;;20.98;13.13;;;16.00;51.70;;;;;;5046587;28;20040;-64
2021/05/21 00:09:43;;;;;;;21.13;12.82;;;16.00;51.90;;;;;;5045923;27;20531;-65
2021/05/21 00:12:11;;;;;;;17.42;12.70;;;15.90;51.90;;;;;;5050272;28;20034;-64
2021/05/21 00:14:39;;;;;;;18.27;12.27;;;15.90;52.00;;;;;;5052664;28;20045;-64
2021/05/21 00:17:07;;;;;;;19.10;12.13;;;15.80;52.20;;;;;;5041101;28;20032;-64
2021/05/21 00:19:35;;;;;;;17.60;12.48;;;15.80;52.40;;;;;;5045870;27;20958;-65
2021/05/21 00:22:03;;;;;;;21.60;12.50;;;15.80;52.40;;;;;;5035489;28;20098;-65
2021/05/21 00:24:34;;;;;;;18.75;11.95;;;15.80;52.50;;;;;;5040601;28;20037;-64
2021/05/21 00:26:59;;;;;;;15.85;11.10;;;15.80;52.60;;;;;;5043453;28;20036;-64
2021/05/21 00:29:25;;;;;;;17.25;11.23;;;15.80;52.70;;;;;;5045237;28;20114;-65
2021/05/21 00:31:50;;;;;;;19.98;11.88;;;15.80;52.60;;;;;;5042840;28;20050;-65
2021/05/21 00:34:16;;;;;;;17.60;10.63;;;15.70;52.60;;;;;;5043377;28;20064;-64
2021/05/21 00:36:41;;;;;;;17.98;11.43;;;15.80;52.70;;;;;;5043690;28;20407;-65
2021/05/21 00:39:07;;;;;;;15.35;9.80;;;15.70;52.70;;;;;;5036567;28;20537;-65
2021/05/21 00:41:33;;;;;;;15.35;10.27;;;15.70;52.70;;;;;;5042026;28;20059;-65
2021/05/21 00:43:58;;;;;;;15.80;9.60;;;15.70;52.70;;;;;;5040788;28;21413;-65
2021/05/21 00:46:25;;;;;;;14.32;10.32;;;15.70;52.70;;;;;;5047686;28;20071;-65
2021/05/21 00:48:53;;;;;;;16.60;9.90;;;15.70;52.60;;;;;;5036547;28;20040;-64
2021/05/21 00:51:18;;;;;;;12.73;8.43;;;15.70;52.70;;;;;;5033862;28;20052;-65
2021/05/21 00:53:48;;;;;;;13.52;8.52;;;15.70;52.70;;;;;;5039600;28;20056;-65
2021/05/21 00:56:13;;;;;;;10.05;8.02;;;15.60;52.70;;;;;;5038265;28;20894;-65
2021/05/21 00:58:39;;;;;;;19.17;8.70;;;15.70;52.80;;;;;;5035995;28;20036;-64
2021/05/21 01:01:07;;;;;;;13.82;8.63;;;15.70;52.70;;;;;;5033115;28;20041;-65
2021/05/21 01:03:40;;;;;;;15.88;8.18;;;15.70;52.70;;;;;;5046534;28;20048;-65
2021/05/21 01:06:10;;;;;;;11.32;7.63;;;15.70;52.80;;;;;;5041955;28;20040;-65
2021/05/21 01:08:38;;;;;;;9.35;7.05;;;15.80;52.80;;;;;;5046881;28;20094;-64
2021/05/21 01:11:09;;;;;;;14.52;8.50;;;15.80;52.60;;;;;;5030843;28;20049;-65
2021/05/21 01:13:36;;;;;;;10.93;7.40;;;15.80;52.60;;;;;;5043580;28;20041;-64
2021/05/21 01:16:05;;;;;;;14.13;7.00;;;15.90;52.50;;;;;;5039269;28;20044;-64
2021/05/21 01:18:30;;;;;;;10.75;7.30;;;15.90;52.50;;;;;;5031070;28;20041;-64
2021/05/21 01:20:58;;;;;;;10.55;6.70;;;15.90;52.40;;;;;;5030211;28;20044;-65
2021/05/21 01:23:25;;;;;;;9.73;6.82;;;15.90;52.40;;;;;;5037030;28;20036;-65
2021/05/21 01:25:51;;;;;;;10.60;6.63;;;16.00;52.30;;;;;;5045422;28;20040;-64
2021/05/21 01:28:18;;;;;;;10.43;6.35;;;15.90;52.10;;;;;;5041643;28;20064;-64
2021/05/21 01:30:44;;;;;;;10.93;6.75;;;16.00;52.00;;;;;;5037062;28;20127;-65
2021/05/21 01:33:11;;;;;;;7.13;5.75;;;16.00;52.00;;;;;;5049288;28;20036;-64
2021/05/21 01:35:38;;;;;;;10.07;5.85;;;16.00;52.10;;;;;;5046159;28;20036;-64
2021/05/21 01:38:07;;;;;;;7.32;5.43;;;16.00;52.00;;;;;;5039836;28;20124;-64
2021/05/21 01:40:34;;;;;;;8.18;5.65;;;16.10;51.90;;;;;;5035688;28;20541;-64
2021/05/21 01:43:01;;;;;;;9.90;5.40;;;16.10;51.80;;;;;;5040747;28;20028;-64
2021/05/21 01:45:32;;;;;;;6.38;4.70;;;16.10;51.60;;;;;;5039043;28;20036;-64
2021/05/21 01:48:00;;;;;;;7.00;4.20;;;16.10;51.60;;;;;;5046157;28;21083;-65
2021/05/21 01:50:30;;;;;;;6.28;4.07;;;16.10;51.60;;;;;;5042548;28;20040;-64
2021/05/21 01:52:55;;;;;;;4.90;3.70;;;16.10;51.60;;;;;;5052258;28;20041;-65
2021/05/21 01:55:22;;;;;;;5.40;3.78;;;16.20;51.40;;;;;;5035859;28;20033;-64
2021/05/21 01:57:52;;;;;;;3.92;3.42;;;16.20;51.40;;;;;;5048970;28;20040;-65
2021/05/21 02:00:18;;;;;;;4.97;2.97;;;16.20;51.30;;;;;;5034657;28;20032;-64
2021/05/21 02:02:43;;;;;;;3.70;3.30;;;16.20;51.10;;;;;;5036176;28;20040;-64
2021/05/21 02:05:11;;;;;;;5.60;2.90;;;16.20;51.00;;;;;;5038789;28;20116;-65
2021/05/21 02:07:40;;;;;;;3.97;3.15;;;16.30;51.00;;;;;;5042616;28;20032;-64
2021/05/21 02:10:10;;;;;;;5.97;2.80;;;16.30;50.90;;;;;;5040727;28;20039;-65
2021/05/21 02:12:39;;;;;;;4.68;3.05;;;16.30;50.70;;;;;;5042768;28;20037;-64
2021/05/21 02:15:07;;;;;;;4.40;2.78;;;16.30;50.60;;;;;;5044100;28;20123;-64
2021/05/21 02:17:33;;;;;;;3.85;2.50;;;16.40;50.90;;;;;;5046625;28;20751;-64
2021/05/21 02:20:01;;;;;;;5.32;2.80;;;16.40;50.80;;;;;;5039296;28;20047;-65
2021/05/21 02:22:30;;;;;;;6.15;3.00;;;16.40;50.60;;;;;;5030092;28;20036;-65
2021/05/21 02:24:57;;;;;;;5.47;2.90;;;16.40;50.70;;;;;;5055286;28;20083;-65
2021/05/21 02:27:24;;;;;;;4.55;3.08;;;16.40;50.50;;;;;;5030004;28;20048;-64
2021/05/21 02:29:53;;;;;;;4.35;2.88;;;16.40;50.40;;;;;;5036697;28;20524;-65
2021/05/21 02:32:19;;;;;;;6.22;2.90;;;16.40;50.50;;;;;;5028368;28;20071;-64
2021/05/21 02:34:49;;;;;;;4.47;2.90;;;16.40;50.50;;;;;;5042894;28;20459;-64
2021/05/21 02:37:15;;;;;;;5.90;2.60;;;16.40;50.60;;;;;;5037915;28;20047;-64
2021/05/21 02:39:40;;;;;;;5.75;2.60;;;16.40;50.50;;;;;;5032856;28;20421;-64
2021/05/21 02:42:09;;;;;;;5.40;2.60;;;16.40;50.40;;;;;;5033755;28;20043;-64
2021/05/21 02:44:38;;;;;;;4.47;2.58;;;16.30;50.40;;;;;;5039123;28;20404;-64
2021/05/21 02:47:05;;;;;;;7.13;2.58;;;16.30;50.40;;;;;;5040311;28;20055;-64
2021/05/21 02:49:33;;;;;;;4.25;2.70;;;16.30;50.50;;;;;;5032748;28;20043;-64
2021/05/21 02:51:59;;;;;;;3.40;2.80;;;16.40;50.70;;;;;;5036234;28;20268;-64
2021/05/21 02:54:27;;;;;;;3.47;3.03;;;16.30;50.70;;;;;;5040221;28;20489;-64
2021/05/21 02:56:55;;;;;;;5.05;2.67;;;16.30;50.80;;;;;;5037157;28;20049;-64
2021/05/21 02:59:25;;;;;;;4.00;2.80;;;16.30;50.80;;;;;;5036306;28;20059;-64
2021/05/21 03:01:55;;;;;;;2.97;2.05;;;16.30;51.00;;;;;;5034592;28;20068;-64
2021/05/21 03:04:21;;;;;;;5.88;2.10;;;16.20;51.00;;;;;;5043638;28;20143;-64
2021/05/21 03:06:49;;;;;;;5.25;2.40;;;16.20;51.00;;;;;;5059505;28;20119;-65
2021/05/21 03:09:17;;;;;;;6.97;2.13;;;16.30;51.20;;;;;;5044820;28;20040;-65
2021/05/21 03:11:44;;;;;;;3.75;2.20;;;16.20;51.10;;;;;;5033048;28;20111;-64
2021/05/21 03:14:10;;;;;;;6.30;2.00;;;16.20;51.00;;;;;;5039303;28;20044;-64
2021/05/21 03:16:35;;;;;;;3.90;2.10;;;16.20;51.00;;;;;;5038024;27;21892;-64
2021/05/21 03:19:03;;;;;;;2.38;2.03;;;16.30;51.20;;;;;;5033469;28;20167;-64
2021/05/21 03:21:29;;;;;;;2.63;2.03;;;16.30;51.20;;;;;;5038075;28;20047;-64
2021/05/21 03:23:54;;;;;;;7.15;1.90;;;16.30;51.30;;;;;;5035451;28;20049;-63
2021/05/21 03:26:22;;;;;;;2.85;1.88;;;16.30;51.40;;;;;;5029188;28;20043;-64
2021/05/21 03:28:48;;;;;;;4.28;2.00;;;16.30;51.40;;;;;;5045697;28;20040;-65
2021/05/21 03:31:15;;;;;;;6.63;2.22;;;16.30;51.30;;;;;;5030932;28;20405;-64
2021/05/21 03:33:41;;;;;;;5.72;1.90;;;16.30;51.20;;;;;;5049848;28;20035;-64
2021/05/21 03:36:11;;;;;;;3.90;2.00;;;16.40;51.10;;;;;;5034269;28;20061;-64
2021/05/21 03:38:39;;;;;;;3.85;1.83;;;16.40;51.10;;;;;;5034027;28;20029;-64
2021/05/21 03:41:06;;;;;;;5.38;1.90;;;16.40;51.20;;;;;;5030939;28;22043;-64
2021/05/21 03:43:39;;;;;;;4.95;2.25;;;16.40;51.20;;;;;;5037040;28;22527;-64
2021/05/21 03:46:04;;;;;;;5.35;2.10;;;16.30;51.40;;;;;;5034857;28;20091;-64
2021/05/21 03:48:30;;;;;;;5.45;2.00;;;16.30;51.40;;;;;;5039190;28;20589;-65
2021/05/21 03:51:01;;;;;;;3.45;1.85;;;16.40;51.60;;;;;;5023532;28;20122;-65
2021/05/21 03:53:31;;;;;;;6.60;2.05;;;16.40;51.90;;;;;;5045293;28;22291;-64
2021/05/21 03:55:56;;;;;;;4.38;1.92;;;16.40;51.80;;;;;;5058771;28;20040;-65
2021/05/21 03:58:25;;;;;;;5.72;1.90;;;16.40;51.70;;;;;;5043387;28;20032;-64
2021/05/21 04:00:54;;;;;;;3.28;1.85;;;16.50;51.50;;;;;;5036661;28;20041;-65
2021/05/21 04:03:21;;;;;;;5.57;1.90;;;16.50;51.40;;;;;;5044567;28;20041;-65
2021/05/21 04:05:50;;;;;;;6.05;1.70;;;16.60;51.40;;;;;;5037299;28;20477;-65
2021/05/21 04:08:16;;;;;;;5.00;1.88;;;16.60;51.40;;;;;;5045339;28;20037;-64
2021/05/21 04:10:44;;;;;;;3.97;1.80;;;16.60;51.40;;;;;;5046515;28;20512;-64
2021/05/21 04:13:09;;;;;;;2.25;1.55;;;16.60;51.50;;;;;;5053116;28;20123;-64
2021/05/21 04:15:37;;;;;;;4.55;1.80;;;16.70;51.70;;;;;;5052824;28;20136;-64
2021/05/21 04:18:06;;;;;;;6.00;1.90;;;16.80;51.80;;;;;;5053238;28;20039;-65
2021/05/21 04:20:36;;;;;;;3.20;1.60;;;16.80;51.50;;;;;;5051093;28;20036;-64
2021/05/21 04:23:03;;;;;;;3.63;1.58;;;16.90;51.30;;;;;;5052047;28;20047;-63
2021/05/21 04:25:29;;;;;;;4.22;1.85;;;16.90;51.20;;;;;;5047700;28;20033;-65
2021/05/21 04:27:56;;;;;;;2.08;1.35;;;16.90;51.00;;;;;;5049100;28;20086;-65
2021/05/21 04:30:25;;;;;;;3.83;1.60;;;17.00;51.00;;;;;;5045232;28;20097;-64
2021/05/21 04:32:54;;;;;;;2.90;1.48;;;17.00;51.20;;;;;;5050782;28;20067;-64
2021/05/21 04:35:22;;;;;;;4.63;1.88;;;17.00;51.20;;;;;;5053540;28;20559;-64
2021/05/21 04:37:48;;;;;;;6.75;1.70;;;17.00;51.20;;;;;;5051976;28;20465;-65
2021/05/21 04:40:14;;;;;;;2.55;1.90;;;17.00;51.00;;;;;;5045467;28;20045;-64
2021/05/21 04:42:40;;;;;;;5.05;1.65;;;17.10;51.10;;;;;;5056647;28;20032;-64
2021/05/21 04:45:07;;;;;;;3.95;1.85;;;17.10;51.10;;;;;;5054275;28;20094;-64
2021/05/21 04:47:33;;;;;;;2.30;1.92;;;17.20;51.20;;;;;;5054156;28;20710;-64
2021/05/21 04:50:02;;;;;;;3.15;1.77;;;17.20;51.10;;;;;;5040193;28;20037;-65
2021/05/21 04:52:27;;;;;;;7.13;1.60;;;17.20;51.00;;;;;;5051899;28;20039;-64
2021/05/21 04:54:53;;;;;;;2.75;1.60;;;17.30;50.80;;;;;;5042559;28;20033;-64
2021/05/21 04:57:20;;;;;;;3.28;1.65;;;17.30;50.80;;;;;;5038092;28;21184;-64
2021/05/21 04:59:46;;;;;;;5.57;1.70;;;17.30;50.90;;;;;;5039746;28;20978;-64
2021/05/21 05:02:14;;;;;;;4.75;1.70;;;17.30;51.10;;;;;;5041030;28;20045;-64
2021/05/21 05:04:42;;;;;;;2.88;1.80;;;17.40;51.20;;;;;;5050034;28;20060;-65
2021/05/21 05:07:07;;;;;;;4.32;1.67;;;17.40;51.30;;;;;;5049930;28;20059;-65
2021/05/21 05:09:35;;;;;;;7.88;1.77;;;17.30;51.40;;;;;;5052614;28;20045;-65
2021/05/21 05:12:01;;;;;;;2.00;1.25;;;17.40;51.40;;;;;;5050438;28;20045;-64
2021/05/21 05:14:26;;;;;;;2.47;1.45;;;17.40;51.40;;;;;;5047770;28;20037;-65
2021/05/21 05:16:55;;;;;;;5.07;1.70;;;17.40;51.40;;;;;;5052417;28;20131;-64
2021/05/21 05:19:20;;;;;;;2.92;1.20;;;17.40;51.50;;;;;;5043541;28;20047;-65
2021/05/21 05:21:46;;;;;;;0.57;0.50;;;17.30;51.20;;;;;;5042362;28;20558;-64
2021/05/21 05:24:14;;;;;;;1.85;0.65;;;17.30;50.70;;;;;;5057605;28;20039;-65
2021/05/21 05:26:43;;;;;;;1.88;0.60;;;17.20;50.30;;;;;;5059027;28;20035;-64
2021/05/21 05:29:11;;;;;;;1.52;0.80;;;17.10;50.80;;;;;;5060405;28;20040;-64
2021/05/21 05:31:40;;;;;;;1.50;0.70;;;17.10;50.20;;;;;;5065810;28;20036;-64
2021/05/21 05:34:06;;;;;;;6.78;0.90;;;17.00;50.70;;;;;;5064039;28;20036;-65
2021/05/21 05:36:34;;;;;;;1.92;0.90;;;17.00;50.80;;;;;;5052891;28;20406;-65
2021/05/21 05:39:00;;;;;;;4.43;0.85;;;17.00;50.80;;;;;;5064670;28;20435;-65
2021/05/21 05:41:28;;;;;;;3.30;1.10;;;16.90;50.80;;;;;;5060686;28;20040;-64
2021/05/21 05:43:53;;;;;;;0.95;0.70;;;16.90;51.50;;;;;;5064434;28;20037;-65
2021/05/21 05:46:21;;;;;;;2.65;1.15;;;16.90;51.20;;;;;;5064585;28;20398;-65
2021/05/21 05:48:47;;;;;;;2.20;0.90;;;16.80;51.80;;;;;;5064370;28;20040;-65
2021/05/21 05:51:12;;;;;;;7.03;1.63;;;16.70;52.10;;;;;;5061596;28;20037;-65
2021/05/21 05:53:40;;;;;;;6.00;1.45;;;16.60;52.50;;;;;;5065708;28;20502;-65
2021/05/21 05:56:09;;;;;;;4.63;1.40;;;16.50;52.90;;;;;;5067971;28;20109;-66
2021/05/21 05:58:36;;;;;;;13.02;1.65;;;16.40;53.40;;;;;;5067181;28;20055;-65
2021/05/21 06:01:03;;;;;;;4.43;1.92;;;16.30;53.90;;;;;;5061155;28;20044;-66
2021/05/21 06:03:29;;;;;;;4.60;1.67;;;16.20;54.40;;;;;;5056335;28;20036;-66
2021/05/21 06:06:01;;;;;;;4.90;1.88;;;16.10;54.90;;;;;;5064997;28;20117;-66
2021/05/21 06:08:29;;;;;;;7.68;2.15;;;16.10;55.30;;;;;;5066161;28;20037;-66
2021/05/21 06:10:57;;;;;;;5.22;1.92;;;16.00;55.60;;;;;;5079021;28;20106;-66
2021/05/21 06:13:26;;;;;;;8.20;2.30;;;16.00;55.80;;;;;;5062379;28;20044;-66
2021/05/21 06:15:54;;;;;;;9.20;2.67;;;15.90;56.00;;;;;;5060755;28;20036;-66
2021/05/21 06:18:20;;;;;;;8.30;2.20;;;16.00;56.30;;;;;;5064421;28;20059;-66
2021/05/21 06:20:46;;;;;;;4.63;2.08;;;16.00;56.60;;;;;;5061910;28;20037;-66
2021/05/21 06:23:12;;;;;;;6.20;2.00;;;16.00;56.90;;;;;;5064050;28;20048;-66
2021/05/21 06:28:13;;;;;;;7.70;2.17;;;16.10;57.20;;;;;;5063542;28;20036;-66
2021/05/21 06:30:41;;;;;;;7.22;2.63;;;16.10;57.30;;;;;;5065604;28;20032;-66
2021/05/21 06:33:09;;;;;;;11.30;2.95;;;16.20;57.50;;;;;;5062330;28;20036;-66
2021/05/21 06:35:35;;;;;;;6.85;2.90;;;16.20;57.60;;;;;;5064971;28;20190;-66
2021/05/21 06:38:03;;;;;;;8.70;2.60;;;16.30;57.80;;;;;;5059007;28;20028;-66
2021/05/21 06:40:31;;;;;;;8.57;2.97;;;16.40;57.90;;;;;;5064993;28;20547;-66
2021/05/21 06:42:58;;;;;;;9.48;2.70;;;16.40;57.90;;;;;;5067329;28;20090;-66
2021/05/21 06:45:26;;;;;;;10.25;3.10;;;16.40;57.90;;;;;;5063393;28;20509;-66
2021/05/21 06:47:52;;;;;;;5.20;2.92;;;16.50;58.00;;;;;;5068903;28;20120;-65
2021/05/21 06:50:18;;;;;;;7.25;2.90;;;16.50;58.00;;;;;;5061344;28;20068;-66
2021/05/21 06:52:46;;;;;;;10.57;3.17;;;16.60;58.10;;;;;;5059601;28;20494;-66
2021/05/21 06:55:14;;;;;;;12.18;3.08;;;16.70;58.00;;;;;;5064616;28;20413;-66
2021/05/21 06:57:40;;;;;;;9.43;2.88;;;16.80;58.10;;;;;;5063171;28;20507;-66
2021/05/21 07:00:06;;;;;;;9.82;2.97;;;16.90;57.80;;;;;;5061180;28;20047;-66
2021/05/21 07:02:36;;;;;;;11.10;2.60;;;17.00;57.60;;;;;;5065357;28;20024;-66
2021/05/21 07:05:02;;;;;;;9.88;2.45;;;17.00;57.40;;;;;;5061384;28;20482;-66
2021/05/21 07:07:30;;;;;;;9.45;2.47;;;17.00;57.20;;;;;;5061008;28;20036;-66
2021/05/21 07:09:56;;;;;;;14.02;2.60;;;17.10;57.40;;;;;;5059748;28;20025;-66
2021/05/21 07:12:22;;;;;;;15.18;2.50;;;17.20;57.40;;;;;;5064667;28;20043;-66
2021/05/21 07:14:49;;;;;;;13.68;2.60;;;17.20;57.20;;;;;;5060274;28;20032;-66
2021/05/21 07:17:15;;;;;;;10.60;2.85;;;17.30;56.80;;;;;;5058908;28;20122;-66
2021/05/21 07:19:40;;;;;;;12.20;2.70;;;17.20;56.60;;;;;;5062217;28;20581;-66
2021/05/21 07:22:07;;;;;;;15.00;3.10;;;17.30;56.80;;;;;;5064955;28;20102;-66
2021/05/21 07:24:35;;;;;;;7.80;1.95;;;;;;;;;;5062267;28;20040;-66
2021/05/21 07:27:02;;;;;;;10.55;2.83;;;18.10;58.90;;;;;;5066608;28;20067;-66
2021/05/21 07:29:28;;;;;;;10.27;2.65;;;;;;;;;;5065468;28;20040;-67
2021/05/21 07:31:53;;;;;;;13.65;2.90;;;21.30;53.10;;;;;;5063067;28;20126;-66
2021/05/21 07:34:22;;;;;;;11.68;2.35;;;21.90;48.20;;;;;;5059837;28;20036;-66
2021/05/21 07:36:52;;;;;;;14.15;2.25;;;21.50;48.00;;;;;;5065151;28;20129;-66
2021/05/21 07:39:20;;;;;;;13.02;2.80;;;21.00;48.40;;;;;;5066909;28;20055;-66
2021/05/21 07:41:48;;;;;;;16.45;2.90;;;20.60;48.90;;;;;;5064944;28;20086;-66
2021/05/21 07:44:19;;;;;;;15.65;2.63;;;20.20;49.60;;;;;;5067150;28;20041;-66
2021/05/21 07:46:44;;;;;;;16.10;2.75;;;20.00;50.20;;;;;;5065560;28;20557;-66
2021/05/21 07:49:10;;;;;;;13.88;2.40;;;19.80;50.30;;;;;;5070095;28;20123;-66
2021/05/21 07:51:36;;;;;;;8.63;2.35;;;19.60;50.80;;;;;;5067688;28;20039;-65
2021/05/21 07:54:02;;;;;;;10.82;2.95;;;19.60;51.10;;;;;;5068150;28;20032;-66
2021/05/21 07:56:27;;;;;;;11.10;2.25;;;19.50;50.50;;;;;;5067473;28;20037;-66
2021/05/21 07:58:57;;;;;;;15.27;2.65;;;19.50;50.70;;;;;;5061516;28;20835;-66
2021/05/21 08:01:27;;;;;;;16.23;2.67;;;19.70;51.30;;;;;;5063065;28;20049;-66
2021/05/21 08:03:55;;;;;;;19.80;2.80;;;20.20;50.40;;;;;;5066382;28;20036;-66
2021/05/21 08:06:23;;;;;;;10.57;2.58;;;20.90;49.80;;;;;;5066864;28;20056;-66
2021/05/21 08:08:49;;;;;;;12.30;2.78;;;;;;;;;;5067364;28;20033;-66
2021/05/21 08:11:19;;;;;;;15.23;2.90;;;21.60;49.60;;;;;;5068016;28;20051;-66
2021/05/21 08:13:44;;;;;;;10.45;2.95;;;24.90;44.60;;;;;;5065040;28;20043;-65
2021/05/21 08:16:13;;;;;;;19.08;3.53;;;;;;;;;;5065857;28;20036;-66
2021/05/21 08:18:39;;;;;;;14.18;3.10;;;;;;;;;;5069325;28;20512;-67
2021/05/21 08:21:05;;;;;;;15.77;3.35;;;;;;;;;;5068073;28;20036;-66
2021/05/21 08:23:34;;;;;;;12.75;2.85;;;26.70;40.10;;;;;;5070787;28;20791;-66
2021/05/21 08:26:00;;;;;;;12.02;2.45;;;;;;;;;;5065519;28;20039;-66
2021/05/21 08:28:26;;;;;;;12.63;3.05;;;;;;;;;;5067904;28;20048;-66
2021/05/21 08:30:53;;;;;;;9.80;2.58;;;;;;;;;;5063777;28;20033;-66
2021/05/21 08:33:20;;;;;;;12.30;2.42;;;;;;;;;;5061808;28;20067;-66
2021/05/21 08:35:48;;;;;;;11.10;2.80;;;;;;;;;;5063786;28;20032;-67
2021/05/21 08:38:14;;;;;;;13.95;3.20;;;;;;;;;;5067930;28;20106;-67
2021/05/21 08:40:40;;;;;;;13.73;2.95;;;30.50;34.30;;;;;;5063464;28;20047;-67
2021/05/21 08:43:07;;;;;;;13.25;2.67;;;;;;;;;;5070331;28;20111;-67
2021/05/21 08:45:33;;;;;;;12.45;3.42;;;;;;;;;;5067429;28;20033;-66
2021/05/21 08:48:02;;;;;;;10.43;2.58;;;;;;;;;;5065600;28;20167;-67
2021/05/21 08:50:30;;;;;;;14.68;2.80;;;32.40;28.50;;;;;;5063570;28;20528;-66
2021/05/21 08:52:57;;;;;;;15.40;2.85;;;;;;;;;;5059700;28;20074;-66
2021/05/21 08:55:23;;;;;;;9.32;2.42;;;31.90;27.50;;;;;;5063315;28;20032;-66
2021/05/21 08:57:51;;;;;;;16.95;2.72;;;;;;;;;;5068382;28;20033;-66
2021/05/21 09:00:17;;;;;;;8.02;2.03;;;31.40;27.20;;;;;;5066847;28;20032;-66
2021/05/21 09:02:46;;;;;;;8.05;2.45;;;30.70;26.90;;;;;;5061257;28;20508;-66
2021/05/21 09:05:12;;;;;;;9.15;2.28;;;31.00;28.00;;;;;;5064019;28;20047;-67
2021/05/21 09:07:42;;;;;;;11.98;2.35;;;31.80;27.20;;;;;;5057447;28;20053;-67
2021/05/21 09:10:10;;;;;;;15.48;2.63;;;32.50;26.30;;;;;;5063763;28;20025;-67
2021/05/21 09:12:46;;;;;;;8.95;2.03;;;33.20;26.60;;;;;;5064763;28;20553;-67
2021/05/21 09:15:20;;;;;;;11.48;2.17;;;34.00;25.60;;;;;;5060327;28;20098;-67
2021/05/21 09:17:52;;;;;;;12.25;2.03;;;34.10;24.30;;;;;;5080051;28;20405;-66
2021/05/21 09:20:22;;;;;;;7.03;1.80;;;33.30;24.70;;;;;;5067312;28;20032;-67
2021/05/21 09:23:09;;;;;;;12.57;2.13;;;;;;;;;;5063733;28;20029;-66
2021/05/21 09:25:36;;;;;;;9.68;2.47;;;;;;;;;;5063606;28;20051;-67
2021/05/21 09:28:04;;;;;;;9.10;2.22;;;;;;;;;;5064843;28;20033;-66
2021/05/21 09:30:30;;;;;;;10.57;2.08;;;;;;;;;;5067678;28;20094;-66
2021/05/21 09:33:03;;;;;;;9.23;2.30;;;;;;;;;;5064173;28;20033;-66
2021/05/21 09:35:29;;;;;;;12.23;2.30;;;;;;;;;;5062092;28;20042;-66
2021/05/21 09:37:57;;;;;;;8.05;1.92;;;32.30;25.10;;;;;;5061386;28;20035;-66
2021/05/21 09:40:32;;;;;;;7.32;2.00;;;28.30;28.30;;;;;;5064322;28;20098;-67
2021/05/21 09:43:06;;;;;;;10.75;2.10;;;28.90;28.10;;;;;;5064834;28;20036;-66
2021/05/21 09:45:40;;;;;;;10.88;2.20;;;29.80;26.80;;;;;;5064167;28;20035;-65
2021/05/21 09:48:08;;;;;;;8.73;1.95;;;30.40;25.70;;;;;;5066049;28;20094;-66
2021/05/21 09:50:42;;;;;;;7.28;2.03;;;30.20;25.80;;;;;;5063413;28;20568;-66
2021/05/21 09:53:12;;;;;;;6.53;1.90;;;29.50;25.90;;;;;;5060626;28;20032;-65
2021/05/21 09:55:45;;;;;;;11.68;2.08;;;;;;;;;;5058974;28;20079;-66
2021/05/21 09:58:36;;;;;;;8.82;2.08;;;29.00;26.00;;;;;;5062884;28;20045;-66
2021/05/21 10:01:18;;;;;;;9.60;2.10;;;27.70;27.60;;;;;;5068346;28;20036;-65
2021/05/21 10:03:55;;;;;;;12.07;1.85;;;26.80;28.30;;;;;;5066950;28;20102;-66
2021/05/21 10:06:28;;;;;;;11.20;2.03;;;26.00;29.20;;;;;;5061498;28;20086;-65
2021/05/21 10:08:59;;;;;;;7.95;1.60;;;25.70;30.00;;;;;;5067129;28;20040;-66
2021/05/21 10:11:25;;;;;;;12.40;2.53;;;25.70;30.40;;;;;;5063512;28;20048;-66
2021/05/21 10:13:53;;;;;;;6.63;1.85;;;25.70;30.00;;;;;;5062726;28;20097;-66
2021/05/21 10:16:22;;;;;;;10.35;2.28;;;25.80;30.70;;;;;;5060717;28;20039;-66
2021/05/21 10:18:52;;;;;;;7.28;2.17;;;26.40;31.00;;;;;;5081134;28;20047;-66
2021/05/21 10:21:18;;;;;;;6.97;1.92;;;27.30;29.70;;;;;;5063099;28;20040;-66
2021/05/21 10:23:58;;;;;;;9.38;1.83;;;27.70;28.60;;;;;;5064205;28;20564;-66
2021/05/21 10:26:32;;;;;;;11.38;1.75;;;28.50;28.40;;;;;;5059645;28;20395;-66
2021/05/21 10:29:02;;;;;;;17.98;2.10;;;29.30;26.80;;;;;;5062366;28;20039;-66
2021/05/21 10:31:32;;;;;;;10.98;2.25;;;29.10;26.60;;;;;;5064700;28;20109;-66
2021/05/21 10:34:14;;;;;;;13.52;2.30;;;28.20;26.90;;;;;;5066808;28;20180;-66
2021/05/21 10:36:40;;;;;;;12.73;2.20;;;27.10;27.90;;;;;;5057918;28;20029;-66
2021/05/21 10:39:18;;;;;;;7.28;1.70;;;26.30;29.20;;;;;;5067844;28;20174;-66
2021/05/21 10:42:01;;;;;;;8.52;2.00;;;25.50;30.20;;;;;;5059735;28;20179;-66
2021/05/21 10:44:38;;;;;;;15.50;2.35;;;25.20;30.80;;;;;;5068106;28;20043;-66
2021/05/21 10:47:39;;;;;;;13.32;2.17;;;24.90;31.20;;;;;;5058142;28;20032;-66
2021/05/21 10:50:09;;;;;;;10.40;2.30;;;24.60;30.90;;;;;;5052933;28;20049;-66
2021/05/21 10:52:55;;;;;;;10.93;1.70;;;24.50;31.80;;;;;;5061457;28;20040;-65
2021/05/21 10:55:49;;;;;;;9.48;2.08;;;25.00;31.60;;;;;;5065320;28;20044;-66
2021/05/21 10:58:33;;;;;;;6.93;1.83;;;25.60;30.70;;;;;;5059966;28;20067;-65
2021/05/21 11:01:09;;;;;;;10.98;1.92;;;26.00;30.40;;;;;;5060770;28;20458;-66
2021/05/21 11:04:08;;;;;;;9.32;2.00;;;25.90;30.80;;;;;;5065405;28;20047;-65
2021/05/21 11:06:48;;;;;;;10.27;2.17;;;25.60;30.60;;;;;;5065063;28;20082;-66
2021/05/21 11:09:18;;;;;;;12.48;2.58;;;25.40;31.20;;;;;;5061916;28;20040;-65
2021/05/21 11:12:17;;;;;;;13.88;2.65;;;25.40;31.40;;;;;;5065695;28;20067;-66
2021/05/21 11:14:46;;;;;;;14.32;2.50;;;25.20;31.40;;;;;;5061172;28;20410;-65
2021/05/21 11:17:23;;;;;;;17.70;2.83;;;24.90;30.90;;;;;;5077188;28;20533;-65
2021/05/21 11:19:59;;;;;;;12.73;2.78;;;24.50;32.70;;;;;;5062178;28;20045;-65
2021/05/21 11:22:38;;;;;;;13.32;2.83;;;24.00;33.00;;;;;;5062990;28;20041;-66
2021/05/21 11:25:15;;;;;;;23.00;3.15;;;23.60;34.00;;;;;;5062045;28;20082;-65
2021/05/21 11:27:44;;;;;;;15.70;2.55;;;23.20;34.50;;;;;;5066916;28;20086;-65
2021/05/21 11:30:14;;;;;;;16.70;2.88;;;22.70;35.30;;;;;;5064556;28;20490;-66
2021/05/21 11:32:42;;;;;;;12.75;2.35;;;22.20;37.60;;;;;;5061986;28;20502;-66
2021/05/21 11:35:15;;;;;;;9.07;1.40;;;21.60;39.10;;;;;;5061303;28;20071;-66
2021/05/21 11:37:43;;;;;;;18.35;2.10;;;21.00;39.60;;;;;;5063969;28;20434;-67
2021/05/21 11:40:10;;;;;;;5.47;1.42;;;20.50;41.70;;;;;;5059776;28;20028;-67
2021/05/21 11:42:38;;;;;;;4.43;1.52;;;20.20;43.70;;;;;;5061905;28;20494;-65
2021/05/21 11:45:06;;;;;;;6.97;1.75;;;20.20;46.70;;;;;;5066042;28;20083;-67
2021/05/21 11:47:37;;;;;;;11.05;2.28;;;20.60;46.60;;;;;;5062868;28;20061;-67
2021/05/21 11:50:08;;;;;;;10.98;2.35;;;21.10;47.20;;;;;;5060703;28;20040;-67
2021/05/21 11:52:34;;;;;;;14.98;2.88;;;21.50;47.20;;;;;;5061146;28;20036;-67
2021/05/21 11:55:02;;;;;;;9.05;2.17;;;21.80;47.50;;;;;;5058887;28;20499;-67
2021/05/21 11:57:29;;;;;;;7.45;2.58;;;22.10;46.20;;;;;;5057241;28;20498;-67
2021/05/21 11:59:58;;;;;;;16.23;2.78;;;22.10;44.90;;;;;;5060648;28;20040;-67
2021/05/21 12:02:24;;;;;;;18.30;3.00;;;22.00;45.10;;;;;;5057078;28;20050;-67
2021/05/21 12:04:55;;;;;;;5.97;2.30;;;21.90;46.90;;;;;;5058150;28;20047;-67
2021/05/21 12:07:26;;;;;;;11.23;2.75;;;22.20;47.60;;;;;;5058602;28;20667;-67
2021/05/21 12:10:00;;;;;;;10.30;2.72;;;22.50;45.40;;;;;;5060597;28;20076;-67
2021/05/21 12:12:27;;;;;;;10.18;2.53;;;22.50;45.60;;;;;;5057252;28;20388;-67
2021/05/21 12:15:15;;;;;;;11.27;2.13;;;22.50;45.50;;;;;;5054736;28;20044;-67
2021/05/21 12:17:51;;;;;;;13.30;2.20;;;22.40;45.00;;;;;;5054275;28;20467;-67
2021/05/21 12:20:20;;;;;;;10.65;1.77;;;22.40;44.00;;;;;;5050401;28;20048;-67
2021/05/21 12:23:01;;;;;;;11.85;1.90;;;22.60;46.20;;;;;;5049391;28;20037;-67
2021/05/21 12:25:31;;;;;;;7.45;1.35;;;23.40;43.40;;;;;;5050834;28;20037;-66
2021/05/21 12:28:03;;;;;;;8.50;1.40;;;23.30;43.80;;;;;;5051012;28;20846;-66
2021/05/21 12:30:29;;;;;;;9.63;1.55;;;23.60;41.20;;;;;;5047695;28;20044;-67
2021/05/21 12:32:55;;;;;;;7.32;1.75;;;23.70;40.60;;;;;;5058437;28;20221;-66
2021/05/21 12:35:35;;;;;;;5.55;1.60;;;23.50;39.80;;;;;;5041578;28;20094;-66
2021/05/21 12:38:07;;;;;;;13.02;1.75;;;23.20;39.70;;;;;;5052836;28;20036;-67
2021/05/21 12:40:33;;;;;;;13.45;1.58;;;22.90;40.80;;;;;;5049950;28;20492;-65
2021/05/21 12:43:05;;;;;;;5.50;1.55;;;22.60;40.80;;;;;;5051702;28;20037;-67
2021/05/21 12:45:36;;;;;;;4.55;1.10;;;22.40;41.80;;;;;;5047950;28;20036;-67
2021/05/21 12:48:01;;;;;;;5.10;1.15;;;22.10;41.20;;;;;;5057022;28;20035;-66
2021/05/21 12:50:32;;;;;;;1.65;0.90;;;21.90;41.30;;;;;;5053278;28;20037;-66
2021/05/21 12:53:01;;;;;;;5.85;1.30;;;21.60;40.80;;;;;;5043366;28;20092;-67
2021/05/21 12:55:29;;;;;;;12.35;1.25;;;21.40;42.00;;;;;;5036375;28;20056;-66
2021/05/21 12:57:56;;;;;;;4.95;1.13;;;21.30;42.60;;;;;;5029303;28;20095;-66
2021/05/21 13:00:25;;;;;;;6.80;1.73;;;21.30;42.70;;;;;;5040780;28;20033;-67
2021/05/21 13:02:55;;;;;;;5.18;1.02;;;21.20;42.90;;;;;;5047328;28;20222;-67